.
WxDataArchive / Data Records for 2012-05-26
2012-05-25 May 2012 2012-05-27

Data Records for Saturday, 26 May 2012

Time	Temp	Chill	HIndex	Humid	Dewpt	 Wind 	HiWind	WindDir	Rain 	Barom 
-----	----	-----	------	-----	-----	------	------	-------	-----	----- 
00:00	69.1	69.1	69.1	52	50.7	0	0	---	0.00	30.072 
00:05	68.9	68.9	68.9	52	50.5	0	0	---	0.00	30.072 
00:10	68.8	68.8	68.8	54	51.5	0	0	---	0.00	30.072 
00:15	68.9	68.9	68.9	53	51.1	0	0	---	0.00	30.073 
00:20	69.1	69.1	69.1	52	50.7	0	0	---	0.00	30.073 
00:25	69.3	69.3	69.3	50	49.8	0	0	---	0.00	30.073 
00:30	69.6	69.6	69.6	51	50.7	0	0	---	0.00	30.077 
00:35	69.8	69.8	69.8	49	49.8	0	1	292	0.00	30.077 
00:40	70.3	70.3	70.3	50	50.8	0	1	292	0.00	30.077 
00:45	70.4	70.4	70.4	50	50.9	0	1	292	0.00	30.066 
00:50	70.3	70.3	70.3	50	50.8	0	0	---	0.00	30.066 
00:55	70.3	70.3	70.3	50	50.8	0	0	---	0.00	30.066 
01:00	69.9	69.9	69.9	50	50.4	0	1	292	0.00	30.066 
01:05	69.8	69.8	69.8	50	50.3	0	0	---	0.00	30.066 
01:10	69.6	69.6	69.6	50	50.1	0	1	292	0.00	30.066 
01:15	69.4	69.4	69.4	50	49.9	0	0	---	0.00	30.067 
01:20	69.3	69.3	69.3	51	50.4	0	0	---	0.00	30.067 
01:25	69.1	69.1	69.1	51	50.2	0	0	---	0.00	30.067 
01:30	68.8	68.8	68.8	52	50.4	0	1	292	0.00	30.069 
01:35	68.6	68.6	68.6	52	50.3	0	1	292	0.00	30.069 
01:40	68.4	68.4	68.4	52	50.1	0	1	292	0.00	30.069 
01:45	68.3	68.3	68.3	53	50.5	0	1	292	0.00	30.072 
01:50	68.1	68.1	68.1	53	50.3	0	0	---	0.00	30.072 
01:55	67.9	67.9	67.9	54	50.6	0	0	---	0.00	30.072 
02:00	67.9	67.9	67.9	54	50.6	0	2	292	0.00	30.073 
02:05	67.8	67.8	67.8	54	50.5	0	0	---	0.00	30.073 
02:10	67.8	67.8	67.8	55	51.0	0	0	---	0.00	30.073 
02:15	67.6	67.6	67.6	55	50.8	0	1	292	0.00	30.079 
02:20	67.6	67.6	67.6	55	50.8	0	1	292	0.00	30.079 
02:25	67.6	67.6	67.6	55	50.8	0	0	---	0.00	30.079 
02:30	67.4	67.4	67.4	55	50.7	0	0	---	0.00	30.086 
02:35	67.4	67.4	67.4	55	50.7	0	1	292	0.00	30.086 
02:40	67.3	67.3	67.3	55	50.6	0	1	292	0.00	30.086 
02:45	67.1	67.1	67.1	56	50.9	0	0	---	0.00	30.085 
02:50	67.1	67.1	67.1	57	51.3	0	1	292	0.00	30.085 
02:55	66.9	66.9	66.9	57	51.2	0	1	292	0.00	30.085 
03:00	66.9	66.9	66.9	57	51.2	0	1	292	0.00	30.081 
03:05	66.9	66.9	66.9	57	51.2	0	1	292	0.00	30.081 
03:10	67.1	67.1	67.1	56	50.9	0	1	292	0.00	30.081 
03:15	67.3	67.3	67.3	56	51.1	0	1	292	0.00	30.081 
03:20	67.4	67.4	67.4	57	51.6	0	1	292	0.00	30.081 
03:25	67.6	67.6	67.6	57	51.8	0	2	292	0.00	30.081 
03:30	67.6	67.6	67.6	56	51.3	0	1	292	0.00	30.091 
03:35	67.6	67.6	67.6	56	51.3	0	3	292	0.00	30.091 
03:40	67.8	67.8	67.8	56	51.5	0	2	292	0.00	30.091 
03:45	67.8	67.8	67.8	55	51.0	0	1	292	0.00	30.090 
03:50	67.8	67.8	67.8	54	50.5	1	3	292	0.00	30.090 
03:55	67.8	67.8	67.8	54	50.5	1	3	315	0.00	30.090 
04:00	67.8	67.8	67.8	54	50.5	0	1	315	0.00	30.098 
04:05	67.6	67.6	67.6	55	50.8	0	1	315	0.00	30.098 
04:10	67.4	67.4	67.4	55	50.7	0	1	315	0.00	30.098 
04:15	67.4	67.4	67.4	55	50.7	0	3	315	0.00	30.100 
04:20	67.4	67.4	67.4	55	50.7	0	2	315	0.00	30.100 
04:25	67.4	67.4	67.4	54	50.2	0	2	315	0.00	30.100 
04:30	67.6	67.6	67.6	54	50.4	1	5	90	0.00	30.091 
04:35	67.8	67.8	67.8	54	50.5	0	1	90	0.00	30.091 
04:40	67.8	67.8	67.8	54	50.5	0	0	---	0.00	30.091 
04:45	67.8	67.8	67.8	54	50.5	0	0	---	0.00	30.090 
04:50	67.8	67.8	67.8	54	50.5	0	1	90	0.00	30.090 
04:55	67.8	67.8	67.8	54	50.5	0	1	90	0.00	30.090 
05:00	67.9	67.9	67.9	53	50.1	0	1	90	0.00	30.093 
05:05	67.9	67.9	67.9	53	50.1	0	3	90	0.00	30.093 
05:10	68.1	68.1	68.1	52	49.8	0	3	90	0.00	30.093 
05:15	68.1	68.1	68.1	52	49.8	0	2	90	0.00	30.101 
05:20	68.1	68.1	68.1	52	49.8	0	3	90	0.00	30.101 
05:25	68.1	68.1	68.1	51	49.3	0	2	90	0.00	30.101 
05:30	68.3	68.3	68.3	51	49.5	0	1	90	0.00	30.100 
05:35	68.3	68.3	68.3	51	49.5	0	1	90	0.00	30.100 
05:40	68.3	68.3	68.3	51	49.5	0	2	90	0.00	30.100 
05:45	68.3	68.3	68.3	50	48.9	0	1	90	0.00	30.102 
05:50	68.3	68.3	68.3	50	48.9	0	2	90	0.00	30.102 
05:55	68.3	68.3	68.3	49	48.4	0	2	90	0.00	30.102 
06:00	68.4	68.4	68.4	49	48.5	0	1	90	0.00	30.108 
06:05	68.4	68.4	68.4	51	49.6	1	4	90	0.00	30.108 
06:10	68.1	68.1	68.1	59	53.2	1	4	68	0.02	30.108 
06:15	66.6	66.6	66.6	64	54.0	1	4	90	0.00	30.102 
06:20	65.5	65.5	65.5	65	53.4	0	1	90	0.00	30.102 
06:25	64.7	64.7	64.7	67	53.5	0	0	---	0.00	30.102 
06:30	64.2	64.2	64.2	69	53.8	0	0	---	0.00	30.122 
06:35	63.9	63.9	63.9	69	53.5	0	2	90	0.00	30.122 
06:40	63.9	63.9	63.9	67	52.7	0	2	90	0.00	30.122 
06:45	64.2	64.2	64.2	67	53.0	1	3	90	0.00	30.123 
06:50	64.5	64.5	64.5	64	52.0	1	5	90	0.00	30.123 
06:55	65.0	65.0	65.0	60	50.8	2	6	90	0.00	30.123 
07:00	65.6	65.6	65.6	60	51.3	1	7	112	0.00	30.122 
07:05	65.6	65.6	65.6	61	51.8	1	2	112	0.00	30.122 
07:10	65.6	65.6	65.6	60	51.3	0	3	112	0.00	30.122 
07:15	65.6	65.6	65.6	58	50.4	1	4	112	0.00	30.126 
07:20	66.0	66.0	66.0	58	50.8	1	4	112	0.00	30.126 
07:25	66.1	66.1	66.1	58	50.9	1	3	112	0.00	30.126 
07:30	66.4	66.4	66.4	57	50.7	2	3	112	0.00	30.127 
07:35	66.9	66.9	66.9	58	51.6	0	2	112	0.00	30.127 
07:40	67.1	67.1	67.1	56	50.9	1	4	112	0.00	30.127 
07:45	67.4	67.4	67.4	56	51.1	1	3	112	0.00	30.138 
07:50	67.6	67.6	67.6	55	50.8	1	3	90	0.00	30.138 
07:55	67.8	67.8	67.8	55	51.0	1	2	90	0.00	30.138 
08:00	67.9	67.9	67.9	54	50.6	2	4	90	0.00	30.131 
08:05	68.1	68.1	68.1	54	50.8	1	5	90	0.00	30.131 
08:10	68.1	68.1	68.1	55	51.3	1	3	90	0.00	30.131 
08:15	68.1	68.1	68.1	54	50.8	1	5	90	0.00	30.140 
08:20	68.1	68.1	68.1	54	50.8	1	4	90	0.00	30.140 
08:25	68.3	68.3	68.3	53	50.5	1	3	90	0.00	30.140 
08:30	68.8	68.8	68.8	53	51.0	1	4	90	0.00	30.153 
08:35	68.9	68.9	68.9	53	51.1	1	3	90	0.00	30.153 
08:40	69.3	69.3	69.3	50	49.8	2	9	90	0.00	30.153 
08:45	69.8	69.8	69.8	52	51.4	1	4	90	0.00	30.151 
08:50	70.3	70.3	70.3	51	51.3	0	3	90	0.00	30.151 
08:55	70.9	70.9	70.9	50	51.3	1	5	90	0.00	30.151 
09:00	71.3	71.3	71.3	49	51.1	1	4	90	0.00	30.151 
09:05	71.1	71.1	71.1	48	50.4	1	4	90	0.00	30.151 
09:10	71.1	71.1	71.1	47	49.8	2	5	112	0.00	30.151 
09:15	71.1	71.1	71.1	48	50.4	1	5	112	0.00	30.155 
09:20	71.5	71.5	71.5	47	50.2	3	7	68	0.00	30.155 
09:25	71.6	71.6	71.6	46	49.7	3	10	90	0.00	30.155 
09:30	71.8	71.8	71.8	46	49.9	3	7	90	0.00	30.155 
09:35	71.8	71.8	71.8	46	49.9	4	14	90	0.00	30.155 
09:40	72.0	72.0	72.0	47	50.7	3	9	90	0.00	30.155 
09:45	72.3	72.3	72.3	46	50.3	3	7	90	0.00	30.156 
09:50	72.8	72.8	72.8	46	50.8	3	12	90	0.00	30.156 
09:55	73.0	73.0	73.0	45	50.4	3	10	90	0.00	30.156 
10:00	73.2	73.2	73.2	46	51.2	3	11	90	0.00	30.159 
10:05	73.3	73.3	73.3	45	50.7	3	11	68	0.00	30.159 
10:10	73.5	73.5	73.5	43	49.6	3	7	112	0.00	30.159 
10:15	73.7	73.7	73.7	44	50.4	3	7	90	0.00	30.165 
10:20	73.9	73.9	73.9	46	51.8	3	7	68	0.00	30.165 
10:25	74.4	74.4	74.4	45	51.7	1	5	68	0.00	30.165 
10:30	74.6	74.6	74.6	42	50.0	4	10	90	0.00	30.165 
10:35	74.4	74.4	74.4	44	51.0	2	10	68	0.00	30.165 
10:40	74.6	74.6	74.6	41	49.3	3	10	90	0.00	30.165 
10:45	74.9	74.9	74.9	41	49.6	3	9	90	0.00	30.165 
10:50	74.9	74.9	74.9	41	49.6	4	10	90	0.00	30.165 
10:55	74.9	74.9	74.9	42	50.2	3	6	90	0.00	30.165 
11:00	74.9	74.9	74.9	41	49.6	4	9	90	0.00	30.162 
11:05	75.1	75.1	77.5	39	48.4	5	13	90	0.00	30.162 
11:10	75.4	75.4	77.6	41	50.0	4	13	112	0.00	30.162 
11:15	76.0	76.0	77.8	40	49.9	5	11	112	0.00	30.163 
11:20	76.5	76.5	78.0	40	50.4	4	10	90	0.00	30.163 
11:25	76.7	76.7	78.1	40	50.5	4	10	90	0.00	30.163 
11:30	76.1	76.1	77.9	40	50.0	4	10	90	0.00	30.158 
11:35	75.8	75.8	77.8	42	51.1	3	10	90	0.00	30.158 
11:40	76.1	76.1	77.9	41	50.7	3	7	90	0.00	30.158 
11:45	76.7	76.7	78.1	41	51.2	3	7	112	0.00	30.159 
11:50	76.8	76.8	78.1	39	49.9	4	7	90	0.00	30.159 
11:55	76.8	76.8	78.2	41	51.3	2	5	90	0.00	30.159 
12:00	76.7	76.7	78.1	40	50.5	3	9	90	0.00	30.156 
12:05	76.7	76.7	78.1	41	51.2	3	9	90	0.00	30.156 
12:10	76.7	76.7	78.2	42	51.9	3	6	90	0.00	30.156 
12:15	77.0	77.0	78.3	41	51.5	3	6	90	0.00	30.155 
12:20	77.7	77.7	78.6	40	51.4	3	5	112	0.00	30.155 
12:25	78.1	78.1	78.7	39	51.1	4	12	112	0.00	30.155 
12:30	78.8	78.8	79.1	39	51.7	3	6	90	0.00	30.139 
12:35	79.2	79.2	79.3	39	52.1	4	10	90	0.00	30.139 
12:40	79.0	79.0	79.2	39	51.9	4	11	90	0.00	30.139 
12:45	79.2	79.2	79.4	40	52.8	3	6	90	0.00	30.138 
12:50	80.1	80.1	79.9	39	52.9	3	9	112	0.00	30.138 
12:55	80.5	80.5	80.1	38	52.5	4	9	112	0.00	30.138 
13:00	80.7	80.7	80.3	39	53.4	4	10	90	0.00	30.127 
13:05	81.1	81.1	80.5	38	53.1	3	6	90	0.00	30.127 
13:10	81.2	81.2	80.4	36	51.7	3	6	90	0.00	30.127 
13:15	81.4	81.4	80.7	37	52.6	4	10	90	0.00	30.128 
13:20	81.4	81.4	80.9	39	54.0	3	8	112	0.00	30.128 
13:25	81.8	81.8	81.0	37	53.0	2	5	45	0.00	30.128 
13:30	82.2	82.2	81.3	37	53.3	2	9	90	0.00	30.139 
13:35	82.6	82.6	81.6	37	53.7	3	9	90	0.00	30.139 
13:40	82.6	82.6	81.6	37	53.7	2	5	90	0.00	30.139 
13:45	82.6	82.6	81.6	37	53.7	2	7	90	0.00	30.138 
13:50	83.0	83.0	82.0	37	54.0	2	5	90	0.00	30.138 
13:55	83.6	83.6	82.6	38	55.3	1	5	90	0.00	30.138 
14:00	83.6	83.6	82.8	39	56.0	3	7	90	0.00	30.115 
14:05	83.6	83.6	82.5	37	54.5	3	7	90	0.00	30.115 
14:10	83.6	83.6	82.6	38	55.3	2	8	90	0.00	30.115 
14:15	84.3	84.3	83.0	36	54.4	2	11	135	0.00	30.104 
14:20	84.5	84.5	83.2	36	54.6	3	10	90	0.00	30.104 
14:25	84.7	84.7	83.5	37	55.5	3	9	90	0.00	30.104 
14:30	85.1	85.1	83.8	36	55.1	3	7	90	0.00	30.099 
14:35	85.5	85.5	83.8	34	53.9	3	7	90	0.00	30.099 
14:40	85.9	85.9	84.4	35	55.0	2	5	90	0.00	30.099 
14:45	86.1	86.1	84.6	35	55.2	2	8	112	0.00	30.088 
14:50	86.1	86.1	84.6	35	55.2	3	10	90	0.00	30.088 
14:55	85.9	85.9	84.4	35	55.0	3	7	90	0.00	30.088 
15:00	86.3	86.3	85.2	37	56.9	2	5	112	0.00	30.077 
15:05	87.0	87.0	85.6	35	56.0	3	6	68	0.00	30.077 
15:10	87.4	87.4	85.6	33	54.7	2	5	112	0.00	30.077 
15:15	88.0	88.0	86.3	33	55.2	1	4	90	0.00	30.070 
15:20	88.2	88.2	87.4	37	58.6	2	5	90	0.00	30.070 
15:25	89.0	89.0	87.2	32	55.3	1	5	45	0.00	30.070 
15:30	89.5	89.5	87.8	32	55.7	2	5	90	0.00	30.064 
15:35	89.7	89.7	88.0	32	55.9	1	4	112	0.00	30.064 
15:40	89.3	89.3	87.6	32	55.5	2	5	68	0.00	30.064 
15:45	88.4	88.4	86.7	33	55.6	3	5	90	0.00	30.046 
15:50	88.4	88.4	86.7	33	55.6	2	6	90	0.00	30.046 
15:55	88.8	88.8	87.0	32	55.1	2	7	90	0.00	30.046 
16:00	89.5	89.5	88.0	33	56.6	2	6	90	0.00	30.040 
16:05	89.9	89.9	88.0	31	55.2	2	5	68	0.00	30.040 
16:10	90.3	90.3	88.5	31	55.5	2	5	90	0.00	30.040 
16:15	90.3	90.3	88.5	31	55.5	3	7	112	0.00	30.036 
16:20	90.3	90.3	88.5	31	55.5	2	9	90	0.00	30.036 
16:25	90.3	90.3	88.5	31	55.5	2	5	90	0.00	30.036 
16:30	90.1	90.1	88.5	32	56.2	2	6	90	0.00	30.037 
16:35	90.3	90.3	88.7	32	56.4	2	5	112	0.00	30.037 
16:40	90.3	90.3	88.7	32	56.4	1	3	68	0.00	30.037 
16:45	90.3	90.3	88.7	32	56.4	1	3	270	0.00	30.032 
16:50	90.5	90.5	89.3	33	57.4	1	3	158	0.00	30.032 
16:55	90.7	90.7	89.5	33	57.6	1	3	112	0.00	30.032 
17:00	91.0	91.0	90.5	35	59.5	1	3	112	0.00	30.034 
17:05	90.7	90.7	89.5	33	57.6	1	3	112	0.00	30.034 
17:10	90.7	90.7	89.5	33	57.6	1	3	90	0.00	30.034 
17:15	90.7	90.7	89.8	34	58.4	1	3	90	0.00	30.024 
17:20	90.7	90.7	89.8	34	58.4	1	2	90	0.00	30.024 
17:25	90.7	90.7	90.1	35	59.2	1	2	90	0.00	30.024 
17:30	90.7	90.7	90.4	36	60.0	1	4	112	0.00	30.024 
17:35	90.7	90.7	90.1	35	59.2	1	4	90	0.00	30.024 
17:40	90.5	90.5	90.1	36	59.9	0	2	90	0.00	30.024 
17:45	90.3	90.3	89.6	35	58.9	1	2	90	0.00	30.022 
17:50	89.9	89.9	89.0	35	58.5	1	3	315	0.00	30.022 
17:55	89.7	89.7	89.6	38	60.7	0	1	315	0.00	30.022 
18:00	89.9	89.9	89.3	36	59.3	1	3	45	0.00	30.020 
18:05	89.9	89.9	89.6	37	60.1	0	2	45	0.00	30.020 
18:10	89.7	89.7	89.6	38	60.7	0	2	45	0.00	30.020 
18:15	89.7	89.7	89.6	38	60.7	1	2	45	0.00	30.018 
18:20	89.7	89.7	89.6	38	60.7	2	4	90	0.00	30.018 
18:25	89.5	89.5	89.3	38	60.5	1	2	90	0.00	30.018 
18:30	89.3	89.3	89.4	39	61.0	1	3	68	0.00	30.018 
18:35	89.3	89.3	89.4	39	61.0	0	1	68	0.00	30.018 
18:40	89.3	89.3	89.4	39	61.0	1	4	90	0.00	30.018 
18:45	89.0	89.0	89.0	39	60.8	1	4	68	0.00	30.017 
18:50	89.0	89.0	89.3	40	61.5	1	4	68	0.00	30.017 
18:55	88.8	88.8	89.0	40	61.3	1	2	68	0.00	30.017 
19:00	88.8	88.8	89.0	40	61.3	0	1	68	0.00	30.021 
19:05	88.8	88.8	89.0	40	61.3	0	2	68	0.00	30.021 
19:10	88.8	88.8	89.3	41	62.0	0	1	68	0.00	30.021 
19:15	88.6	88.6	88.7	40	61.1	1	3	68	0.00	30.017 
19:20	88.4	88.4	88.7	41	61.7	1	3	68	0.00	30.017 
19:25	87.4	87.4	86.9	39	59.4	1	6	68	0.00	30.017 
19:30	84.5	84.5	84.0	41	58.2	2	7	112	0.00	30.027 
19:35	82.8	82.8	82.6	43	58.0	1	4	112	0.00	30.027 
19:40	81.6	81.6	81.6	44	57.5	2	6	68	0.00	30.027 
19:45	80.9	80.9	81.1	45	57.5	2	4	90	0.00	30.041 
19:50	80.1	80.1	80.4	45	56.8	2	6	90	0.00	30.041 
19:55	79.2	79.2	79.8	46	56.6	2	7	90	0.00	30.041 
20:00	78.6	78.6	79.5	47	56.7	2	10	90	0.00	30.055 
20:05	78.1	78.1	79.2	48	56.8	1	4	90	0.00	30.055 
20:10	77.7	77.7	79.0	49	57.0	2	5	112	0.00	30.055 
20:15	77.4	77.4	78.8	48	56.1	3	10	90	0.00	30.047 
20:20	77.0	77.0	78.6	49	56.4	2	6	112	0.00	30.047 
20:25	76.8	76.8	78.4	48	55.6	4	10	90	0.00	30.047 
20:30	76.5	76.5	78.3	49	55.9	2	7	90	0.00	30.049 
20:35	76.1	76.1	78.1	49	55.5	3	10	90	0.00	30.049 
20:40	75.8	75.8	78.0	49	55.3	3	9	112	0.00	30.049 
20:45	75.6	75.6	77.9	50	55.6	3	11	90	0.00	30.057 
20:50	75.4	75.4	77.8	50	55.4	2	5	68	0.00	30.057 
20:55	75.3	75.3	77.7	50	55.4	2	5	112	0.00	30.057 
21:00	75.1	75.1	77.7	50	55.2	1	5	90	0.00	30.068 
21:05	75.1	75.1	77.7	50	55.2	1	5	90	0.00	30.068 
21:10	75.1	75.1	77.7	50	55.2	2	5	90	0.00	30.068 
21:15	75.1	75.1	77.7	50	55.2	1	5	90	0.00	30.077 
21:20	75.1	75.1	77.7	50	55.2	2	5	90	0.00	30.077 
21:25	75.1	75.1	77.7	50	55.2	2	5	45	0.00	30.077 
21:30	74.9	74.9	74.9	50	55.0	2	5	90	0.00	30.082 
21:35	74.9	74.9	74.9	51	55.5	1	3	68	0.00	30.082 
21:40	74.7	74.7	74.7	51	55.4	2	6	68	0.00	30.082 
21:45	74.6	74.6	74.6	50	54.7	2	6	90	0.00	30.085 
21:50	74.6	74.6	74.6	51	55.3	3	7	90	0.00	30.085 
21:55	74.6	74.6	74.6	51	55.3	2	5	90	0.00	30.085 
22:00	74.4	74.4	74.4	50	54.5	3	9	90	0.00	30.090 
22:05	74.2	74.2	74.2	50	54.3	3	7	90	0.00	30.090 
22:10	74.2	74.2	74.2	49	53.8	2	6	68	0.00	30.090 
22:15	74.0	74.0	74.0	50	54.2	1	4	90	0.00	30.090 
22:20	73.9	73.9	73.9	49	53.5	2	5	90	0.00	30.090 
22:25	73.7	73.7	73.7	50	53.9	3	10	68	0.00	30.090 
22:30	73.5	73.5	73.5	50	53.7	3	7	68	0.00	30.089 
22:35	73.3	73.3	73.3	50	53.5	3	6	90	0.00	30.089 
22:40	73.0	73.0	73.0	49	52.7	3	6	90	0.00	30.089 
22:45	72.8	72.8	72.8	49	52.5	3	5	90	0.00	30.091 
22:50	72.7	72.7	72.7	48	51.9	3	7	90	0.00	30.091 
22:55	72.5	72.5	72.5	49	52.2	3	7	90	0.00	30.091 
23:00	72.3	72.3	72.3	49	52.1	2	4	90	0.00	30.092 
23:05	72.1	72.1	72.1	49	51.9	2	5	45	0.00	30.092 
23:10	71.8	71.8	71.8	48	51.0	3	6	90	0.00	30.092 
23:15	71.6	71.6	71.6	49	51.4	2	6	90	0.00	30.089 
23:20	71.5	71.5	71.5	49	51.3	2	5	90	0.00	30.089 
23:25	71.3	71.3	71.3	49	51.1	1	3	90	0.00	30.089 
23:30	71.1	71.1	71.1	49	51.0	2	5	90	0.00	30.092 
23:35	70.9	70.9	70.9	48	50.2	2	5	68	0.00	30.092 
23:40	70.9	70.9	70.9	47	49.7	2	5	90	0.00	30.092 
23:45	70.9	70.9	70.9	47	49.7	2	4	90	0.00	30.092 
23:50	70.8	70.8	70.8	47	49.6	2	4	90	0.00	30.092 
23:55	70.8	70.8	70.8	46	49.0	2	4	90	0.00	30.092 

CoCoRaHS
IN-AL-39
A2 Web Hosting
Creative Commons License
GoDaddy
search engine by freefind advanced

loaded 2018-11-20 02:25:23 • last modified 2010-11-18 10:43:29
Privacy PolicyDisclaimer
• wx.awcolley.com is powered by PmWiki v.2002016 •
• all content (unless otherwise noted) © 2018 A W Colley